Time;durP1;ratioP1;P1;durP2;ratioP2;P2;SDS_P1;SDS_P2;PMS_P1;PMS_P2;Temp;Humidity;BMP_temperature;BMP_pressure;BME280_temperature;BME280_humidity;BME280_pressure;Samples;Min_cycle;Max_cycle;Signal;HPM_P1;HPM_P2
2024/04/13 00:02:15;;;;;;;3.78;1.85;;;12.60;99.90;;;;;;5504084;26;20029;-72
2024/04/13 00:04:42;;;;;;;5.45;2.22;;;12.60;99.90;;;;;;5500252;26;20022;-72
2024/04/13 00:07:09;;;;;;;4.90;2.10;;;12.50;99.90;;;;;;5482439;26;20504;-72
2024/04/13 00:09:36;;;;;;;6.00;2.20;;;12.50;99.90;;;;;;5491562;26;20056;-71
2024/04/13 00:12:03;;;;;;;3.63;2.08;;;12.50;99.90;;;;;;5493655;26;20026;-73
2024/04/13 00:14:30;;;;;;;5.05;2.30;;;12.50;99.90;;;;;;5513986;26;20025;-72
2024/04/13 00:16:57;;;;;;;5.90;2.53;;;12.40;99.90;;;;;;5492388;26;20037;-72
2024/04/13 00:19:24;;;;;;;6.63;2.80;;;12.40;99.90;;;;;;5506502;26;20473;-72
2024/04/13 00:21:51;;;;;;;6.25;2.63;;;12.40;99.90;;;;;;5504406;26;20027;-72
2024/04/13 00:24:16;;;;;;;6.28;2.53;;;12.40;99.90;;;;;;5474801;26;20010;-72
2024/04/13 00:26:42;;;;;;;5.72;2.47;;;12.30;99.90;;;;;;5497246;26;20073;-73
2024/04/13 00:29:09;;;;;;;6.32;2.80;;;12.30;99.90;;;;;;5503166;26;20120;-72
2024/04/13 00:31:35;;;;;;;5.28;2.35;;;12.30;99.90;;;;;;5510112;26;20013;-72
2024/04/13 00:34:04;;;;;;;6.00;2.58;;;12.30;99.90;;;;;;5483794;26;20015;-72
2024/04/13 00:36:30;;;;;;;5.63;2.92;;;12.30;99.90;;;;;;5472978;26;20017;-72
2024/04/13 00:38:56;;;;;;;5.13;3.15;;;12.30;99.90;;;;;;5506850;26;20037;-72
2024/04/13 00:41:21;;;;;;;6.32;3.10;;;12.30;99.90;;;;;;5510632;26;20453;-72
2024/04/13 00:43:47;;;;;;;6.32;2.97;;;12.30;99.90;;;;;;5506396;26;20078;-72
2024/04/13 00:46:33;;;;;;;6.47;3.10;;;12.20;99.90;;;;;;5480455;26;19997;-72
2024/04/13 00:49:00;;;;;;;7.07;3.72;;;12.20;99.90;;;;;;5508287;26;20002;-72
2024/04/13 00:51:31;;;;;;;4.93;3.20;;;12.30;99.90;;;;;;5503156;26;20413;-72
2024/04/13 00:53:56;;;;;;;4.57;2.53;;;12.20;99.90;;;;;;5505776;26;20009;-72
2024/04/13 00:56:24;;;;;;;6.25;3.25;;;12.30;99.90;;;;;;5505326;26;20016;-72
2024/04/13 00:58:50;;;;;;;5.13;2.85;;;12.30;99.90;;;;;;5502894;26;20002;-72
2024/04/13 01:01:17;;;;;;;5.63;2.67;;;12.30;99.90;;;;;;5489188;26;20013;-72
2024/04/13 01:03:44;;;;;;;7.15;3.03;;;12.30;99.90;;;;;;5509083;26;20010;-72
2024/04/13 01:06:11;;;;;;;7.13;3.15;;;12.30;99.90;;;;;;5506404;26;20136;-72
2024/04/13 01:08:37;;;;;;;5.00;2.70;;;12.30;99.90;;;;;;5502627;26;20002;-72
2024/04/13 01:11:03;;;;;;;4.68;2.90;;;12.30;99.90;;;;;;5476761;26;20073;-73
2024/04/13 01:13:29;;;;;;;5.80;2.83;;;12.30;99.90;;;;;;5510737;26;20015;-72
2024/04/13 01:15:58;;;;;;;3.65;2.60;;;12.30;99.90;;;;;;5504276;26;20013;-73
2024/04/13 01:18:24;;;;;;;4.75;2.53;;;12.30;99.90;;;;;;5507426;26;20133;-73
2024/04/13 01:20:50;;;;;;;5.15;2.50;;;12.30;99.90;;;;;;5504303;26;20076;-72
2024/04/13 01:23:17;;;;;;;7.35;2.72;;;12.30;99.90;;;;;;5510411;26;20410;-72
2024/04/13 01:25:44;;;;;;;4.38;3.10;;;12.30;99.90;;;;;;5509876;26;20026;-72
2024/04/13 01:28:14;;;;;;;4.15;2.50;;;12.30;99.90;;;;;;5506734;26;20029;-73
2024/04/13 01:30:41;;;;;;;4.05;2.40;;;12.30;99.90;;;;;;5512167;26;20030;-72
2024/04/13 01:33:09;;;;;;;4.18;2.95;;;12.20;99.90;;;;;;5509298;26;20030;-72
2024/04/13 01:35:36;;;;;;;4.95;2.88;;;12.20;99.90;;;;;;5504639;26;20049;-72
2024/04/13 01:38:03;;;;;;;4.38;2.40;;;12.20;99.90;;;;;;5506178;26;20029;-72
2024/04/13 01:40:30;;;;;;;4.90;3.33;;;12.20;99.90;;;;;;5505326;26;21573;-73
2024/04/13 01:42:58;;;;;;;4.10;2.90;;;12.10;99.90;;;;;;5504534;26;20494;-72
2024/04/13 01:45:25;;;;;;;5.18;2.92;;;12.10;99.90;;;;;;5497266;26;20037;-73
2024/04/13 01:47:52;;;;;;;5.10;3.38;;;12.10;99.90;;;;;;5496856;26;20481;-72
2024/04/13 01:50:19;;;;;;;7.28;3.25;;;12.10;99.90;;;;;;5503113;26;20018;-72
2024/04/13 01:52:46;;;;;;;6.05;3.28;;;12.00;99.90;;;;;;5502476;26;20022;-72
2024/04/13 01:55:13;;;;;;;5.55;2.67;;;12.00;99.90;;;;;;5495597;26;20029;-72
2024/04/13 01:57:40;;;;;;;4.40;2.85;;;11.90;99.90;;;;;;5509208;26;20041;-73
2024/04/13 02:00:08;;;;;;;6.20;3.00;;;11.90;99.90;;;;;;5506272;26;20022;-72
2024/04/13 02:02:35;;;;;;;5.60;2.60;;;11.90;99.90;;;;;;5505124;26;20022;-72
2024/04/13 02:05:02;;;;;;;4.30;2.40;;;11.90;99.90;;;;;;5505810;26;20040;-72
2024/04/13 02:07:29;;;;;;;4.38;2.20;;;11.90;99.90;;;;;;5509610;26;20025;-72
2024/04/13 02:09:56;;;;;;;4.22;2.33;;;11.90;99.90;;;;;;5505885;26;20029;-72
2024/04/13 02:12:23;;;;;;;6.80;2.33;;;11.80;99.90;;;;;;5516536;26;20466;-72
2024/04/13 02:14:50;;;;;;;3.88;2.40;;;11.80;99.90;;;;;;5508108;26;20033;-72
2024/04/13 02:17:17;;;;;;;3.13;2.05;;;11.80;99.90;;;;;;5501422;26;20034;-72
2024/04/13 02:19:44;;;;;;;4.97;2.47;;;11.80;99.90;;;;;;5509249;26;20034;-72
2024/04/13 02:22:11;;;;;;;5.32;2.40;;;11.70;99.90;;;;;;5510153;26;20497;-72
2024/04/13 02:24:39;;;;;;;4.30;2.10;;;11.70;99.90;;;;;;5506199;26;20021;-72
2024/04/13 02:27:06;;;;;;;3.53;2.03;;;11.70;99.90;;;;;;5471539;26;20026;-72
2024/04/13 02:29:33;;;;;;;5.00;2.08;;;11.60;99.90;;;;;;5498234;26;20470;-72
2024/04/13 02:32:00;;;;;;;6.93;2.97;;;11.60;99.90;;;;;;5499289;26;20042;-72
2024/04/13 02:34:27;;;;;;;5.15;2.55;;;11.60;99.90;;;;;;5505990;26;20022;-72
2024/04/13 02:36:54;;;;;;;4.68;2.47;;;11.60;99.90;;;;;;5502926;26;20034;-72
2024/04/13 02:39:21;;;;;;;5.60;2.33;;;11.60;99.90;;;;;;5507679;26;20388;-72
2024/04/13 02:41:48;;;;;;;4.82;2.42;;;11.60;99.90;;;;;;5499567;26;20026;-72
2024/04/13 02:44:15;;;;;;;6.47;2.45;;;11.60;99.90;;;;;;5489899;26;20033;-72
2024/04/13 02:46:42;;;;;;;5.05;2.33;;;11.60;99.90;;;;;;5475975;26;20042;-72
2024/04/13 02:49:09;;;;;;;4.82;2.10;;;11.60;99.90;;;;;;5465845;26;20025;-72
2024/04/13 02:51:36;;;;;;;7.22;2.53;;;11.60;99.90;;;;;;5497640;26;20030;-72
2024/04/13 02:54:04;;;;;;;4.28;2.28;;;11.60;99.90;;;;;;5479342;26;20329;-72
2024/04/13 02:56:33;;;;;;;4.85;1.65;;;11.60;99.90;;;;;;5500571;26;20439;-72
2024/04/13 02:59:01;;;;;;;3.85;1.40;;;11.60;99.90;;;;;;5503575;26;20034;-72
2024/04/13 03:01:28;;;;;;;4.63;1.38;;;11.60;99.90;;;;;;5504325;26;20023;-72
2024/04/13 03:03:55;;;;;;;3.88;1.33;;;11.60;99.90;;;;;;5506025;26;20030;-72
2024/04/13 03:06:22;;;;;;;5.43;1.85;;;11.60;99.90;;;;;;5473501;26;20025;-72
2024/04/13 03:08:50;;;;;;;6.47;1.52;;;11.70;99.90;;;;;;5508598;26;20021;-72
2024/04/13 03:11:18;;;;;;;4.88;1.52;;;11.70;99.90;;;;;;5504353;26;20000;-72
2024/04/13 03:13:49;;;;;;;7.65;1.65;;;11.70;99.90;;;;;;5504660;26;20022;-72
2024/04/13 03:16:16;;;;;;;8.32;1.50;;;11.70;99.90;;;;;;5504445;26;20030;-72
2024/04/13 03:18:44;;;;;;;7.03;1.83;;;11.70;99.90;;;;;;5503703;26;20033;-72
2024/04/13 03:21:11;;;;;;;9.50;1.70;;;11.80;99.90;;;;;;5467296;26;20030;-72
2024/04/13 03:23:40;;;;;;;4.72;1.10;;;11.80;99.90;;;;;;5508616;26;20002;-72
2024/04/13 03:26:08;;;;;;;7.00;1.80;;;11.80;99.90;;;;;;5508071;26;20021;-72
2024/04/13 03:28:35;;;;;;;3.88;1.10;;;11.80;99.90;;;;;;5514490;26;20034;-72
2024/04/13 03:31:03;;;;;;;8.32;1.65;;;11.80;99.90;;;;;;5501707;26;20482;-72
2024/04/13 03:33:30;;;;;;;8.25;1.48;;;11.80;99.90;;;;;;5485538;26;20338;-72
2024/04/13 03:36:01;;;;;;;8.40;1.80;;;11.80;99.90;;;;;;5483261;26;20026;-72
2024/04/13 03:38:28;;;;;;;10.63;1.65;;;11.80;99.90;;;;;;5507364;26;20029;-72
2024/04/13 03:41:13;;;;;;;8.82;1.38;;;11.80;99.90;;;;;;5497009;26;20029;-72
2024/04/13 03:43:40;;;;;;;11.15;2.00;;;11.80;99.90;;;;;;5498468;26;20026;-72
2024/04/13 03:46:07;;;;;;;9.05;2.38;;;11.80;99.90;;;;;;5505975;26;20021;-72
2024/04/13 03:48:38;;;;;;;6.47;1.85;;;11.80;99.90;;;;;;5508955;26;20034;-73
2024/04/13 03:51:06;;;;;;;8.88;1.52;;;11.80;99.90;;;;;;5503311;26;20029;-71
2024/04/13 03:53:33;;;;;;;10.23;1.80;;;11.80;99.90;;;;;;5505578;26;20329;-72
2024/04/13 03:56:01;;;;;;;6.78;1.60;;;11.70;99.90;;;;;;5506858;26;20026;-72
2024/04/13 03:58:28;;;;;;;9.20;1.60;;;11.80;99.90;;;;;;5505908;26;20026;-72
2024/04/13 04:00:57;;;;;;;9.43;1.60;;;11.70;99.90;;;;;;5502369;26;20132;-72
2024/04/13 04:03:24;;;;;;;11.20;1.83;;;11.70;99.90;;;;;;5500454;26;20029;-72
2024/04/13 04:05:52;;;;;;;11.90;1.73;;;11.70;99.90;;;;;;5511912;26;20026;-72
2024/04/13 04:08:19;;;;;;;8.35;2.28;;;11.70;99.90;;;;;;5513597;26;20033;-72
2024/04/13 04:10:46;;;;;;;7.50;1.85;;;11.70;99.90;;;;;;5511999;26;20374;-72
2024/04/13 04:13:13;;;;;;;8.10;1.90;;;11.70;99.90;;;;;;5507933;26;20026;-72
2024/04/13 04:15:41;;;;;;;11.10;1.63;;;11.70;99.90;;;;;;5512295;26;20029;-72
2024/04/13 04:18:08;;;;;;;7.63;1.77;;;11.70;99.90;;;;;;5497768;26;20149;-72
2024/04/13 04:20:35;;;;;;;10.93;2.13;;;11.70;99.90;;;;;;5507229;26;20478;-72
2024/04/13 04:23:02;;;;;;;10.80;1.98;;;11.70;99.90;;;;;;5497595;26;20064;-72
2024/04/13 04:25:29;;;;;;;10.10;1.98;;;11.70;99.90;;;;;;5494600;26;20045;-72
2024/04/13 04:27:56;;;;;;;7.93;2.00;;;11.60;99.90;;;;;;5515487;26;20022;-72
2024/04/13 04:30:23;;;;;;;13.95;2.15;;;11.70;99.90;;;;;;5497207;26;20342;-72
2024/04/13 04:32:50;;;;;;;9.63;2.00;;;11.70;99.90;;;;;;5505036;26;20030;-72
2024/04/13 04:35:17;;;;;;;7.65;1.63;;;11.70;99.90;;;;;;5503999;26;20462;-72
2024/04/13 04:37:43;;;;;;;9.27;1.70;;;11.70;99.90;;;;;;5508919;26;20022;-72
2024/04/13 04:40:10;;;;;;;7.53;2.08;;;11.70;99.90;;;;;;5509479;26;20021;-72
2024/04/13 04:42:37;;;;;;;11.05;2.10;;;11.70;99.90;;;;;;5472820;26;20022;-72
2024/04/13 04:45:05;;;;;;;13.70;2.35;;;11.60;99.90;;;;;;5497277;26;20030;-72
2024/04/13 04:47:35;;;;;;;10.23;2.10;;;11.70;99.90;;;;;;5513126;26;20017;-72
2024/04/13 04:50:05;;;;;;;6.05;1.85;;;11.70;99.90;;;;;;5504652;26;20506;-72
2024/04/13 04:52:32;;;;;;;8.60;2.03;;;11.70;99.90;;;;;;5508545;26;20021;-72
2024/04/13 04:55:01;;;;;;;8.35;1.77;;;11.70;99.90;;;;;;5499384;26;20037;-72
2024/04/13 04:57:28;;;;;;;8.82;2.60;;;11.70;99.90;;;;;;5502013;26;20455;-72
2024/04/13 04:59:55;;;;;;;11.05;2.28;;;11.60;99.90;;;;;;5510210;26;20038;-72
2024/04/13 05:02:24;;;;;;;10.40;2.13;;;11.70;99.90;;;;;;5502668;26;20022;-72
2024/04/13 05:04:51;;;;;;;10.07;2.03;;;11.60;99.90;;;;;;5504900;26;20423;-72
2024/04/13 05:07:19;;;;;;;10.77;1.90;;;11.70;99.90;;;;;;5502668;26;21097;-72
2024/04/13 05:09:46;;;;;;;8.52;1.83;;;11.70;99.90;;;;;;5515765;26;20021;-72
2024/04/13 05:12:13;;;;;;;7.90;2.08;;;11.70;99.90;;;;;;5501610;26;20000;-72
2024/04/13 05:14:40;;;;;;;9.52;2.15;;;11.70;99.90;;;;;;5513431;26;20465;-72
2024/04/13 05:17:07;;;;;;;6.95;1.75;;;11.70;99.90;;;;;;5504491;26;20056;-72
2024/04/13 05:19:38;;;;;;;11.65;2.42;;;11.70;99.90;;;;;;5505894;26;20023;-72
2024/04/13 05:22:05;;;;;;;11.13;1.90;;;11.70;99.90;;;;;;5497432;26;20031;-73
2024/04/13 05:24:32;;;;;;;9.00;2.10;;;11.80;99.90;;;;;;5505646;26;20017;-72
2024/04/13 05:26:59;;;;;;;8.70;2.08;;;11.80;99.90;;;;;;5501074;26;20021;-72
2024/04/13 05:29:24;;;;;;;8.77;1.98;;;11.80;99.90;;;;;;5511526;26;20002;-72
2024/04/13 05:31:50;;;;;;;12.55;2.40;;;11.80;99.90;;;;;;5500194;26;20096;-72
2024/04/13 05:34:16;;;;;;;10.73;2.20;;;11.80;99.90;;;;;;5509813;26;20013;-72
2024/04/13 05:36:45;;;;;;;11.32;2.35;;;11.80;99.90;;;;;;5466514;26;20002;-72
2024/04/13 05:39:12;;;;;;;8.80;1.98;;;11.90;99.90;;;;;;5485946;26;20009;-72
2024/04/13 05:41:38;;;;;;;7.13;1.90;;;11.90;99.90;;;;;;5505988;26;19998;-72
2024/04/13 05:44:04;;;;;;;7.35;1.95;;;11.90;99.90;;;;;;5509414;26;20002;-72
2024/04/13 05:46:30;;;;;;;10.15;2.10;;;12.00;99.90;;;;;;5504943;26;20016;-73
2024/04/13 05:48:56;;;;;;;8.20;1.88;;;12.00;99.90;;;;;;5494675;26;20054;-73
2024/04/13 05:51:22;;;;;;;9.18;2.05;;;12.00;99.90;;;;;;5512148;26;20006;-72
2024/04/13 05:53:47;;;;;;;7.60;2.22;;;12.00;99.90;;;;;;5502991;26;20013;-72
2024/04/13 05:56:13;;;;;;;12.07;4.43;;;12.00;99.90;;;;;;5502687;26;19997;-73
2024/04/13 05:58:42;;;;;;;9.95;2.80;;;12.00;99.90;;;;;;5473387;26;20002;-73
2024/04/13 06:01:08;;;;;;;10.75;2.30;;;12.10;99.90;;;;;;5501058;26;20021;-73
2024/04/13 06:03:34;;;;;;;8.00;2.15;;;12.10;99.90;;;;;;5504614;26;20002;-73
2024/04/13 06:06:00;;;;;;;7.10;2.13;;;12.20;99.90;;;;;;5502644;26;20017;-72
2024/04/13 06:08:26;;;;;;;9.07;2.15;;;12.20;99.90;;;;;;5499638;26;20020;-73
2024/04/13 06:10:52;;;;;;;10.35;2.65;;;12.20;99.90;;;;;;5480317;26;20063;-72
2024/04/13 06:13:18;;;;;;;9.00;2.85;;;12.30;99.90;;;;;;5497615;26;20415;-72
2024/04/13 06:15:44;;;;;;;10.80;2.25;;;12.30;99.90;;;;;;5507974;26;20017;-72
2024/04/13 06:18:11;;;;;;;20.63;11.82;;;12.30;99.90;;;;;;5504539;26;20342;-72
2024/04/13 06:20:38;;;;;;;10.40;4.00;;;12.40;99.90;;;;;;5511141;26;20014;-72
2024/04/13 06:23:03;;;;;;;9.88;3.08;;;12.50;99.90;;;;;;5511433;26;20412;-72
2024/04/13 06:25:30;;;;;;;9.57;2.60;;;12.50;99.90;;;;;;5506648;26;20021;-72
2024/04/13 06:27:56;;;;;;;7.63;3.42;;;12.60;99.90;;;;;;5514827;26;20005;-72
2024/04/13 06:30:22;;;;;;;8.52;3.92;;;12.70;99.90;;;;;;5504071;26;20013;-72
2024/04/13 06:32:48;;;;;;;9.57;3.90;;;12.70;99.90;;;;;;5500090;26;20016;-72
2024/04/13 06:35:14;;;;;;;13.68;5.45;;;12.90;99.90;;;;;;5504268;26;20010;-72
2024/04/13 06:37:40;;;;;;;8.38;5.05;;;12.90;99.90;;;;;;5505676;26;20306;-72
2024/04/13 06:40:06;;;;;;;13.88;4.70;;;12.90;99.90;;;;;;5502034;26;20351;-72
2024/04/13 06:42:33;;;;;;;9.18;3.80;;;13.00;99.90;;;;;;5498691;26;20001;-72
2024/04/13 06:45:00;;;;;;;8.43;4.45;;;13.00;99.90;;;;;;5505604;26;20017;-72
2024/04/13 06:47:27;;;;;;;11.95;3.67;;;13.10;99.90;;;;;;5505263;26;20012;-72
2024/04/13 06:49:52;;;;;;;11.35;3.72;;;13.10;99.90;;;;;;5498780;26;20073;-72
2024/04/13 06:52:18;;;;;;;7.05;2.92;;;13.30;99.90;;;;;;5501839;26;20013;-72
2024/04/13 06:54:44;;;;;;;7.57;3.00;;;13.40;99.90;;;;;;5507757;26;20050;-72
2024/04/13 06:57:10;;;;;;;6.60;2.65;;;13.50;99.90;;;;;;5500241;26;20006;-72
2024/04/13 06:59:37;;;;;;;8.20;2.92;;;13.60;99.90;;;;;;5502487;26;20054;-72
2024/04/13 07:02:03;;;;;;;7.63;2.33;;;13.70;99.90;;;;;;5501641;26;20005;-72
2024/04/13 07:04:30;;;;;;;8.07;2.88;;;13.70;99.90;;;;;;5512060;26;20002;-72
2024/04/13 07:06:57;;;;;;;6.57;2.17;;;13.70;99.90;;;;;;5483776;26;20479;-72
2024/04/13 07:09:22;;;;;;;4.80;2.03;;;13.80;99.90;;;;;;5487114;26;20465;-72
2024/04/13 07:11:48;;;;;;;7.90;2.50;;;13.80;99.90;;;;;;5506672;26;20010;-72
2024/04/13 07:14:14;;;;;;;6.90;2.70;;;13.90;99.90;;;;;;5505295;26;20006;-72
2024/04/13 07:16:40;;;;;;;5.07;2.28;;;14.10;99.90;;;;;;5507974;26;20444;-72
2024/04/13 07:19:05;;;;;;;7.20;2.45;;;14.20;99.90;;;;;;5507884;26;20002;-72
2024/04/13 07:21:31;;;;;;;7.72;2.47;;;14.40;99.90;;;;;;5506269;26;20008;-72
2024/04/13 07:23:57;;;;;;;7.00;2.47;;;14.60;99.90;;;;;;5507588;26;20002;-72
2024/04/13 07:26:23;;;;;;;8.30;2.42;;;14.70;99.90;;;;;;5505417;26;20005;-72
2024/04/13 07:28:49;;;;;;;6.05;2.13;;;14.90;99.90;;;;;;5474911;26;20006;-72
2024/04/13 07:31:14;;;;;;;6.50;2.40;;;15.10;99.90;;;;;;5509295;26;20452;-72
2024/04/13 07:33:40;;;;;;;5.60;2.15;;;15.10;99.90;;;;;;5503039;26;20020;-72
2024/04/13 07:36:06;;;;;;;7.53;2.22;;;15.30;99.90;;;;;;5504096;26;20002;-72
2024/04/13 07:38:33;;;;;;;4.53;2.28;;;15.40;99.90;;;;;;5505314;26;20002;-72
2024/04/13 07:40:58;;;;;;;5.78;2.20;;;15.40;99.90;;;;;;5506283;26;20006;-72
2024/04/13 07:43:24;;;;;;;6.80;2.58;;;15.40;99.90;;;;;;5510436;26;20020;-72
2024/04/13 07:45:51;;;;;;;6.43;2.45;;;15.50;99.90;;;;;;5504909;26;20014;-72
2024/04/13 07:48:17;;;;;;;8.80;2.80;;;15.60;99.90;;;;;;5502168;26;20042;-72
2024/04/13 07:50:43;;;;;;;4.95;2.40;;;15.80;99.90;;;;;;5504172;26;20070;-72
2024/04/13 07:53:09;;;;;;;10.20;2.35;;;15.90;99.90;;;;;;5505076;26;19995;-72
2024/04/13 07:55:35;;;;;;;6.00;2.28;;;16.00;99.90;;;;;;5498690;26;20028;-72
2024/04/13 07:58:01;;;;;;;6.32;1.98;;;16.10;99.90;;;;;;5497314;26;20016;-72
2024/04/13 08:00:26;;;;;;;5.10;2.00;;;16.40;99.90;;;;;;5507458;26;20006;-72
2024/04/13 08:02:52;;;;;;;8.00;2.92;;;16.50;99.90;;;;;;5510385;26;20097;-72
2024/04/13 08:05:19;;;;;;;6.07;2.03;;;16.90;99.90;;;;;;5501751;26;20144;-73
2024/04/13 08:07:44;;;;;;;5.88;2.28;;;17.20;99.90;;;;;;5474268;26;20042;-72
2024/04/13 08:10:10;;;;;;;6.18;2.38;;;17.40;99.90;;;;;;5510488;26;20010;-73
2024/04/13 08:12:36;;;;;;;5.53;2.47;;;17.50;99.90;;;;;;5501992;26;20444;-72
2024/04/13 08:15:02;;;;;;;6.22;2.58;;;17.50;99.90;;;;;;5507884;26;20017;-72
2024/04/13 08:17:28;;;;;;;8.52;2.25;;;17.40;99.90;;;;;;5504261;26;20298;-72
2024/04/13 08:19:55;;;;;;;7.15;2.45;;;17.60;99.90;;;;;;5511574;26;19998;-73
2024/04/13 08:22:20;;;;;;;6.13;2.42;;;17.90;99.90;;;;;;5510606;26;20430;-73
2024/04/13 08:24:46;;;;;;;7.07;2.28;;;18.40;99.90;;;;;;5513581;26;20072;-73
2024/04/13 08:27:12;;;;;;;7.75;2.97;;;18.90;99.90;;;;;;5494352;26;20030;-73
2024/04/13 08:29:38;;;;;;;5.07;2.75;;;19.30;99.90;;;;;;5468619;26;20010;-73
2024/04/13 08:32:04;;;;;;;6.35;2.55;;;19.60;99.90;;;;;;5502237;26;20001;-73
2024/04/13 08:34:30;;;;;;;7.35;2.33;;;19.80;99.90;;;;;;5483039;26;20017;-73
2024/04/13 08:36:56;;;;;;;9.38;6.07;;;19.90;99.90;;;;;;5495005;26;20006;-73
2024/04/13 08:39:21;;;;;;;8.18;3.70;;;19.90;99.90;;;;;;5505956;26;20002;-73
2024/04/13 08:42:03;;;;;;;6.93;2.70;;;20.00;99.90;;;;;;5484828;26;20077;-73
2024/04/13 08:44:33;;;;;;;6.60;2.33;;;20.10;99.90;;;;;;5481517;26;20013;-73
2024/04/13 08:47:00;;;;;;;6.15;2.47;;;20.10;99.90;;;;;;5511576;26;20026;-73
2024/04/13 08:49:39;;;;;;;6.45;2.70;;;20.00;99.90;;;;;;5480055;26;20016;-73
2024/04/13 08:52:08;;;;;;;4.30;2.20;;;20.00;99.90;;;;;;5508593;26;20114;-73
2024/04/13 08:54:34;;;;;;;7.90;2.60;;;20.10;99.90;;;;;;5507000;26;20045;-73
2024/04/13 08:57:06;;;;;;;6.03;1.95;;;20.10;99.90;;;;;;5504453;26;20006;-73
2024/04/13 08:59:33;;;;;;;6.05;2.00;;;20.20;99.90;;;;;;5513576;26;20020;-73
2024/04/13 09:02:03;;;;;;;7.50;2.10;;;20.20;99.90;;;;;;5509539;26;20020;-73
2024/04/13 09:04:31;;;;;;;5.40;1.92;;;20.30;99.90;;;;;;5511973;26;20449;-73
2024/04/13 09:06:58;;;;;;;4.22;1.80;;;20.40;99.90;;;;;;5512887;26;20002;-73
2024/04/13 09:09:25;;;;;;;4.43;1.90;;;20.50;99.90;;;;;;5512585;26;20017;-74
2024/04/13 09:11:52;;;;;;;4.38;1.92;;;20.60;99.90;;;;;;5511683;26;20085;-73
2024/04/13 09:14:18;;;;;;;7.18;2.13;;;20.80;99.90;;;;;;5509663;26;20002;-74
2024/04/13 09:16:45;;;;;;;4.65;1.98;;;20.90;99.90;;;;;;5507947;26;20458;-74
2024/04/13 09:19:11;;;;;;;5.70;1.95;;;21.00;99.90;;;;;;5492405;26;20001;-73
2024/04/13 09:21:40;;;;;;;5.68;2.20;;;21.10;99.90;;;;;;5505769;26;20075;-73
2024/04/13 09:24:07;;;;;;;4.65;1.83;;;21.20;99.90;;;;;;5504655;26;20083;-74
2024/04/13 09:26:44;;;;;;;11.68;7.13;;;21.20;99.90;;;;;;5518053;26;20016;-74
2024/04/13 09:29:13;;;;;;;6.43;2.50;;;21.20;99.90;;;;;;5507398;26;20411;-74
2024/04/13 09:31:40;;;;;;;4.60;2.35;;;21.30;99.90;;;;;;5509693;26;20005;-74
2024/04/13 09:34:06;;;;;;;5.93;2.10;;;21.40;99.90;;;;;;5474973;26;20014;-74
2024/04/13 09:36:32;;;;;;;4.90;2.00;;;21.40;99.90;;;;;;5517456;26;20013;-73
2024/04/13 09:38:58;;;;;;;7.22;1.95;;;21.50;99.90;;;;;;5509960;26;20006;-72
2024/04/13 09:41:24;;;;;;;3.80;2.00;;;21.60;99.90;;;;;;5504296;26;20055;-73
2024/04/13 09:43:51;;;;;;;5.13;2.40;;;21.80;99.90;;;;;;5502707;26;20010;-73
2024/04/13 09:46:20;;;;;;;4.63;2.08;;;22.10;99.90;;;;;;5496181;26;20005;-76
2024/04/13 09:48:46;;;;;;;4.72;2.10;;;22.30;99.90;;;;;;5502241;26;19998;-75
2024/04/13 09:51:12;;;;;;;5.72;2.08;;;22.50;99.90;;;;;;5501465;26;20006;-73
2024/04/13 09:53:38;;;;;;;4.53;2.08;;;22.70;99.90;;;;;;5507493;26;20345;-72
2024/04/13 09:56:04;;;;;;;4.43;1.63;;;22.90;99.90;;;;;;5507094;26;20069;-75
2024/04/13 09:58:31;;;;;;;3.90;1.58;;;22.90;99.90;;;;;;5508114;26;20106;-79
2024/04/13 10:01:01;;;;;;;4.63;1.80;;;22.80;99.90;;;;;;5506769;26;20013;-79
2024/04/13 10:03:27;;;;;;;4.38;1.60;;;22.80;99.90;;;;;;5504498;26;20024;-76
2024/04/13 10:05:57;;;;;;;5.75;1.90;;;22.90;99.90;;;;;;5498997;26;20016;-77
2024/04/13 10:08:25;;;;;;;4.00;1.60;;;22.90;99.90;;;;;;5504315;26;20357;-74
2024/04/13 10:10:55;;;;;;;3.95;1.50;;;22.90;99.90;;;;;;5507234;26;20411;-82
2024/04/13 10:13:36;;;;;;;4.03;1.63;;;22.90;99.90;;;;;;5475716;26;20488;-69
2024/04/13 10:16:04;;;;;;;4.25;1.92;;;23.10;99.90;;;;;;5487073;26;20014;-82
2024/04/13 10:18:30;;;;;;;5.10;1.73;;;23.10;99.90;;;;;;5499250;26;20009;-73
2024/04/13 10:21:00;;;;;;;3.97;1.58;;;23.00;99.90;;;;;;5504654;26;20001;-80
2024/04/13 10:23:26;;;;;;;3.80;1.48;;;23.00;99.90;;;;;;5502990;26;20323;-80
2024/04/13 10:25:57;;;;;;;5.47;1.70;;;22.90;99.90;;;;;;5498390;26;20002;-79
2024/04/13 10:28:24;;;;;;;4.85;1.70;;;22.90;99.90;;;;;;5476172;26;20000;-79
2024/04/13 10:30:55;;;;;;;4.28;2.00;;;22.90;99.90;;;;;;5507277;26;20006;-78
2024/04/13 10:33:23;;;;;;;5.07;2.13;;;22.80;99.90;;;;;;5514859;26;20014;-76
2024/04/13 10:36:04;;;;;;;4.32;2.25;;;22.80;99.90;;;;;;5508630;26;20006;-78
2024/04/13 10:38:34;;;;;;;4.22;1.67;;;22.80;99.90;;;;;;5503017;26;20042;-79
2024/04/13 10:41:04;;;;;;;5.70;2.63;;;22.70;99.90;;;;;;5508209;26;20057;-79
2024/04/13 10:43:30;;;;;;;4.13;1.88;;;22.60;99.90;;;;;;5500640;26;20005;-78
2024/04/13 10:45:58;;;;;;;3.90;1.67;;;22.60;99.90;;;;;;5500535;26;20111;-74
2024/04/13 10:48:33;;;;;;;5.15;1.48;;;22.50;99.90;;;;;;5505901;26;20014;-78
2024/04/13 10:51:00;;;;;;;3.95;1.50;;;22.40;99.90;;;;;;5504455;26;20005;-76
2024/04/13 10:53:29;;;;;;;4.90;2.00;;;22.30;99.90;;;;;;5500514;26;20033;-75
2024/04/13 10:55:57;;;;;;;3.58;1.45;;;22.10;99.90;;;;;;5500392;26;20020;-79
2024/04/13 10:58:29;;;;;;;4.95;1.48;;;22.10;99.90;;;;;;5510219;26;20024;-81
2024/04/13 11:00:55;;;;;;;5.55;1.77;;;22.00;99.90;;;;;;5497037;26;20017;-80
2024/04/13 11:03:23;;;;;;;7.43;1.77;;;21.90;99.90;;;;;;5498883;26;20014;-80
2024/04/13 11:05:49;;;;;;;4.65;1.30;;;21.90;99.90;;;;;;5498342;26;20028;-78
2024/04/13 11:08:16;;;;;;;5.65;2.15;;;21.90;99.90;;;;;;5497401;26;20006;-77
2024/04/13 11:10:43;;;;;;;3.50;1.60;;;21.90;99.90;;;;;;5495441;26;20377;-79
2024/04/13 11:13:09;;;;;;;4.13;1.70;;;22.10;99.90;;;;;;5491748;26;20005;-78
2024/04/13 11:15:35;;;;;;;4.90;2.38;;;22.00;99.90;;;;;;5505027;26;20002;-76
2024/04/13 11:18:02;;;;;;;4.85;2.25;;;21.80;99.90;;;;;;5507058;26;20005;-78
2024/04/13 11:20:29;;;;;;;6.28;2.40;;;21.60;99.90;;;;;;5502225;26;20014;-78
2024/04/13 11:22:57;;;;;;;3.85;1.75;;;21.40;99.90;;;;;;5505129;26;20002;-78
2024/04/13 11:25:25;;;;;;;4.25;1.60;;;21.30;99.90;;;;;;5506484;26;20450;-77
2024/04/13 11:27:51;;;;;;;3.72;1.80;;;21.20;99.90;;;;;;5503109;26;20480;-74
2024/04/13 11:30:18;;;;;;;4.20;1.70;;;21.20;99.90;;;;;;5504850;26;20006;-76
2024/04/13 11:32:44;;;;;;;3.72;1.65;;;21.10;99.90;;;;;;5507576;26;20010;-75
2024/04/13 11:35:14;;;;;;;4.63;1.88;;;21.00;99.90;;;;;;5509754;26;20146;-73
2024/04/13 11:37:40;;;;;;;5.82;2.00;;;21.00;99.90;;;;;;5505807;26;20006;-73
2024/04/13 11:40:15;;;;;;;5.50;2.00;;;20.90;99.90;;;;;;5501059;26;20001;-74
2024/04/13 11:42:41;;;;;;;4.32;2.00;;;20.80;99.90;;;;;;5485469;26;20057;-74
2024/04/13 11:45:08;;;;;;;4.43;2.10;;;20.70;99.90;;;;;;5507103;26;20033;-73
2024/04/13 11:47:34;;;;;;;3.38;1.77;;;20.60;99.90;;;;;;5505774;26;19997;-75
2024/04/13 11:50:02;;;;;;;3.42;1.55;;;20.60;99.90;;;;;;5490956;26;20485;-74
2024/04/13 11:52:28;;;;;;;3.80;1.88;;;20.70;99.90;;;;;;5497702;26;20434;-74
2024/04/13 11:54:55;;;;;;;3.45;2.00;;;20.80;99.90;;;;;;5497882;26;20353;-74
2024/04/13 11:57:21;;;;;;;6.05;2.10;;;20.90;99.90;;;;;;5486438;26;20005;-74
2024/04/13 11:59:48;;;;;;;3.67;2.58;;;20.90;99.90;;;;;;5509837;26;20006;-72
2024/04/13 12:02:14;;;;;;;5.53;2.60;;;21.00;99.90;;;;;;5464588;26;20021;-78
2024/04/13 12:04:40;;;;;;;4.07;2.70;;;20.90;99.90;;;;;;5468880;26;20082;-77
2024/04/13 12:07:11;;;;;;;4.93;2.88;;;20.90;99.90;;;;;;5504657;26;20001;-75
2024/04/13 12:09:38;;;;;;;5.30;2.72;;;20.90;99.90;;;;;;5498526;26;20014;-79
2024/04/13 12:12:06;;;;;;;5.18;2.72;;;20.80;99.90;;;;;;5504782;26;20067;-74
2024/04/13 12:14:33;;;;;;;3.50;2.65;;;20.80;99.90;;;;;;5499637;26;20012;-76
2024/04/13 12:16:59;;;;;;;6.50;2.70;;;20.80;99.90;;;;;;5515811;26;19994;-77
2024/04/13 12:19:25;;;;;;;6.20;2.85;;;20.80;99.90;;;;;;5506605;26;20018;-76
2024/04/13 12:21:51;;;;;;;4.90;2.85;;;20.80;99.90;;;;;;5499673;26;20005;-75
2024/04/13 12:24:16;;;;;;;3.85;2.75;;;20.90;99.90;;;;;;5508351;26;19999;-76
2024/04/13 12:26:42;;;;;;;7.55;3.55;;;21.00;99.90;;;;;;5508582;26;20098;-76
2024/04/13 12:29:09;;;;;;;4.38;2.90;;;21.10;99.90;;;;;;5489364;26;20402;-73
2024/04/13 12:31:34;;;;;;;6.28;3.28;;;21.10;99.90;;;;;;5486632;26;20045;-76
2024/04/13 12:34:00;;;;;;;4.57;3.40;;;21.20;99.90;;;;;;5504490;26;20005;-74
2024/04/13 12:36:26;;;;;;;4.00;3.38;;;21.20;99.90;;;;;;5504565;26;20006;-77
2024/04/13 12:38:54;;;;;;;5.57;3.28;;;21.20;99.90;;;;;;5517729;26;20006;-77
2024/04/13 12:41:20;;;;;;;4.40;3.38;;;21.20;99.90;;;;;;5512605;26;20019;-75
2024/04/13 12:43:46;;;;;;;6.63;3.28;;;21.30;99.90;;;;;;5506127;26;20014;-73
2024/04/13 12:46:12;;;;;;;4.68;3.72;;;21.30;99.90;;;;;;5507035;26;20557;-75